createdAt,value
2019-03-21T00:00:03.731Z,1013.4
2019-03-21T00:01:04.400Z,1013.4
2019-03-21T00:02:05.069Z,1013.4
2019-03-21T00:03:05.738Z,1013.4
2019-03-21T00:04:06.411Z,1013.4
2019-03-21T00:05:07.078Z,1013.5
2019-03-21T00:06:07.746Z,1013.4
2019-03-21T00:07:08.418Z,1013.5
2019-03-21T00:08:09.090Z,1013.4
2019-03-21T00:09:09.805Z,1013.4
2019-03-21T00:10:10.475Z,1013.5
2019-03-21T00:11:11.144Z,1013.5
2019-03-21T00:12:11.814Z,1013.5
2019-03-21T00:13:12.483Z,1013.5
2019-03-21T00:14:13.154Z,1013.5
2019-03-21T00:15:13.826Z,1013.4
2019-03-21T00:16:14.492Z,1013.5
2019-03-21T00:17:15.161Z,1013.5
2019-03-21T00:18:15.832Z,1013.4
2019-03-21T00:19:16.501Z,1013.4
2019-03-21T00:20:17.172Z,1013.4
2019-03-21T00:21:17.841Z,1013.4
2019-03-21T00:22:18.511Z,1013.4
2019-03-21T00:23:19.182Z,1013.4
2019-03-21T00:24:19.849Z,1013.4
2019-03-21T00:25:20.519Z,1013.4
2019-03-21T00:26:21.189Z,1013.5
2019-03-21T00:27:21.863Z,1013.4
2019-03-21T00:28:22.528Z,1013.5
2019-03-21T00:29:23.196Z,1013.5
2019-03-21T00:30:23.916Z,1013.5
2019-03-21T00:31:24.586Z,1013.6
2019-03-21T00:32:25.256Z,1013.5
2019-03-21T00:33:25.925Z,1013.5
2019-03-21T00:34:26.595Z,1013.5
2019-03-21T00:35:27.267Z,1013.5
2019-03-21T00:36:27.933Z,1013.5
2019-03-21T00:37:28.604Z,1013.5
2019-03-21T00:38:29.273Z,1013.4
2019-03-21T00:39:33.023Z,1013.5
2019-03-21T00:40:31.604Z,1013.5
2019-03-21T00:41:32.273Z,1013.5
2019-03-21T00:42:32.942Z,1013.4
2019-03-21T00:43:33.611Z,1013.4
2019-03-21T00:44:34.284Z,1013.4
2019-03-21T00:45:34.950Z,1013.4
2019-03-21T00:46:35.622Z,1013.4
2019-03-21T00:47:36.289Z,1013.5
2019-03-21T00:48:36.959Z,1013.4
2019-03-21T00:49:37.628Z,1013.4
2019-03-21T00:50:38.297Z,1013.4
2019-03-21T00:51:38.965Z,1013.5
2019-03-21T00:52:39.635Z,1013.5
2019-03-21T00:53:40.306Z,1013.4
2019-03-21T00:54:40.979Z,1013.4
2019-03-21T00:55:41.643Z,1013.4
2019-03-21T00:56:42.312Z,1013.4
2019-03-21T00:57:42.985Z,1013.3
2019-03-21T00:58:43.652Z,1013.3
2019-03-21T00:59:44.323Z,1013.4
2019-03-21T01:00:44.989Z,1013.3
2019-03-21T01:01:45.661Z,1013.3
2019-03-21T01:02:46.331Z,1013.3
2019-03-21T01:03:46.999Z,1013.2
2019-03-21T01:04:47.669Z,1013.2
2019-03-21T01:05:48.339Z,1013.2
2019-03-21T01:06:49.010Z,1013.2
2019-03-21T01:07:49.678Z,1013.2
2019-03-21T01:08:50.349Z,1013.2
2019-03-21T01:09:51.017Z,1013.3
2019-03-21T01:10:51.687Z,1013.3
2019-03-21T01:11:52.358Z,1013.2
2019-03-21T01:12:53.077Z,1013.2
2019-03-21T01:13:53.745Z,1013.2
2019-03-21T01:14:54.462Z,1013.2
2019-03-21T01:15:55.133Z,1013.2
2019-03-21T01:16:55.806Z,1013.1
2019-03-21T01:17:56.471Z,1013.2
2019-03-21T01:18:57.147Z,1013.2
2019-03-21T01:19:57.817Z,1013.2
2019-03-21T01:20:58.486Z,1013.2
2019-03-21T01:21:59.155Z,1013.2
2019-03-21T01:22:59.874Z,1013.2
2019-03-21T01:24:00.545Z,1013.2
2019-03-21T01:25:01.213Z,1013.2
2019-03-21T01:26:01.932Z,1013.1
2019-03-21T01:27:02.601Z,1013.1
2019-03-21T01:28:03.318Z,1013.1
2019-03-21T01:29:03.986Z,1013.1
2019-03-21T01:30:04.654Z,1013.1
2019-03-21T01:31:05.324Z,1013.1
2019-03-21T01:32:05.992Z,1013.2
2019-03-21T01:33:06.664Z,1013.1
2019-03-21T01:34:07.334Z,1013.1
2019-03-21T01:35:08.000Z,1013.1
2019-03-21T01:36:08.669Z,1013.1
2019-03-21T01:37:09.338Z,1013.1
2019-03-21T01:38:10.007Z,1013.0
2019-03-21T01:39:10.676Z,1013.0
2019-03-21T01:40:11.345Z,1013.0
2019-03-21T01:41:12.015Z,1013.0
2019-03-21T01:42:12.683Z,1013.0
2019-03-21T01:43:13.352Z,1012.9
2019-03-21T01:44:14.021Z,1013.0
2019-03-21T01:45:14.691Z,1012.9
2019-03-21T01:46:15.360Z,1013.0
2019-03-21T01:47:16.030Z,1013.0
2019-03-21T01:48:16.697Z,1012.9
2019-03-21T01:49:17.368Z,1012.9
2019-03-21T01:50:18.037Z,1012.9
2019-03-21T01:51:18.708Z,1013.0
2019-03-21T01:52:19.378Z,1013.0
2019-03-21T01:53:20.048Z,1012.9
2019-03-21T01:54:20.714Z,1012.9
2019-03-21T01:55:21.385Z,1012.9
2019-03-21T01:56:22.052Z,1012.9
2019-03-21T01:57:22.722Z,1012.9
2019-03-21T01:58:23.394Z,1012.9
2019-03-21T01:59:24.061Z,1012.9
2019-03-21T02:00:24.728Z,1012.9
2019-03-21T02:01:25.412Z,1012.9
2019-03-21T02:02:26.116Z,1012.9
2019-03-21T02:03:26.784Z,1012.9
2019-03-21T02:04:27.455Z,1012.9
2019-03-21T02:05:28.124Z,1012.9
2019-03-21T02:06:28.793Z,1012.9
2019-03-21T02:07:29.461Z,1012.9
2019-03-21T02:08:30.130Z,1012.9
2019-03-21T02:09:30.799Z,1012.9
2019-03-21T02:10:31.468Z,1012.9
2019-03-21T02:11:32.137Z,1012.8
2019-03-21T02:12:32.806Z,1012.9
2019-03-21T02:13:33.476Z,1012.8
2019-03-21T02:14:34.145Z,1012.8
2019-03-21T02:15:34.814Z,1012.9
2019-03-21T02:16:35.489Z,1012.8
2019-03-21T02:17:36.202Z,1012.8
2019-03-21T02:18:36.869Z,1012.8
2019-03-21T02:19:37.538Z,1012.9
2019-03-21T02:20:38.255Z,1012.8
2019-03-21T02:21:38.925Z,1012.9
2019-03-21T02:22:39.593Z,1012.8
2019-03-21T02:23:40.263Z,1012.8
2019-03-21T02:24:40.931Z,1012.8
2019-03-21T02:25:41.600Z,1012.8
2019-03-21T02:26:42.317Z,1012.8
2019-03-21T02:27:42.988Z,1012.9
2019-03-21T02:28:43.704Z,1012.9
2019-03-21T02:29:44.373Z,1012.9
2019-03-21T02:30:45.044Z,1012.8
2019-03-21T02:31:45.713Z,1012.8
2019-03-21T02:32:46.383Z,1012.9
2019-03-21T02:33:47.100Z,1012.8
2019-03-21T02:34:47.767Z,1012.8
2019-03-21T02:35:48.437Z,1012.8
2019-03-21T02:36:49.106Z,1012.8
2019-03-21T02:37:49.779Z,1012.8
2019-03-21T02:38:50.493Z,1012.8
2019-03-21T02:39:59.370Z,1012.8
2019-03-21T02:40:52.826Z,1012.8
2019-03-21T02:41:53.491Z,1012.8
2019-03-21T02:42:54.208Z,1012.8
2019-03-21T02:43:54.880Z,1012.8
2019-03-21T02:45:07.580Z,1012.8
2019-03-21T02:45:56.256Z,1012.8
2019-03-21T02:46:57.016Z,1012.8
2019-03-21T02:47:57.637Z,1012.9
2019-03-21T02:48:58.303Z,1012.8
2019-03-21T02:49:58.976Z,1012.8
2019-03-21T02:50:59.640Z,1012.9
2019-03-21T02:52:00.308Z,1012.8
2019-03-21T02:53:00.978Z,1012.8
2019-03-21T02:54:01.648Z,1012.8
2019-03-21T02:55:02.366Z,1012.8
2019-03-21T02:56:03.033Z,1012.8
2019-03-21T02:57:03.703Z,1012.8
2019-03-21T02:58:04.418Z,1012.9
2019-03-21T02:59:05.088Z,1012.9
2019-03-21T03:00:05.758Z,1012.8
2019-03-21T03:01:06.434Z,1012.8
2019-03-21T03:02:07.097Z,1012.8
2019-03-21T03:03:07.766Z,1012.8
2019-03-21T03:04:08.433Z,1012.8
2019-03-21T03:05:09.103Z,1012.8
2019-03-21T03:06:09.837Z,1012.8
2019-03-21T03:07:10.469Z,1012.8
2019-03-21T03:08:11.137Z,1012.8
2019-03-21T03:09:11.825Z,1012.8
2019-03-21T03:10:12.475Z,1012.8
2019-03-21T03:11:13.146Z,1012.8
2019-03-21T03:12:13.811Z,1012.8
2019-03-21T03:13:14.494Z,1012.8
2019-03-21T03:14:15.167Z,1012.8
2019-03-21T03:15:22.594Z,1012.8
2019-03-21T03:16:17.478Z,1012.8
2019-03-21T03:17:18.148Z,1012.8
2019-03-21T03:18:18.879Z,1012.8
2019-03-21T03:19:19.515Z,1012.7
2019-03-21T03:20:20.187Z,1012.8
2019-03-21T03:21:20.899Z,1012.8
2019-03-21T03:22:21.650Z,1012.7
2019-03-21T03:23:22.279Z,1012.8
2019-03-21T03:24:22.947Z,1012.7
2019-03-21T03:25:23.632Z,1012.8
2019-03-21T03:26:24.374Z,1012.8
2019-03-21T03:27:25.015Z,1012.7
2019-03-21T03:28:25.693Z,1012.8
2019-03-21T03:29:26.354Z,1012.7
2019-03-21T03:30:27.034Z,1012.7
2019-03-21T03:31:27.747Z,1012.7
2019-03-21T03:32:28.622Z,1012.7
2019-03-21T03:33:29.404Z,1012.7
2019-03-21T03:34:30.093Z,1012.7
2019-03-21T03:35:30.738Z,1012.7
2019-03-21T03:36:31.415Z,1012.6
2019-03-21T03:37:32.125Z,1012.7
2019-03-21T03:38:32.769Z,1012.7
2019-03-21T03:39:36.770Z,1012.7
2019-03-21T03:40:35.101Z,1012.7
2019-03-21T03:41:35.770Z,1012.7
2019-03-21T03:42:36.495Z,1012.6
2019-03-21T03:43:37.202Z,1012.7
2019-03-21T03:44:37.869Z,1012.6
2019-03-21T03:45:38.869Z,1012.7
2019-03-21T03:46:39.250Z,1012.7
2019-03-21T03:47:39.916Z,1012.7
2019-03-21T03:48:40.620Z,1012.6
2019-03-21T03:49:41.257Z,1012.7
2019-03-21T03:50:41.926Z,1012.7
2019-03-21T03:51:42.673Z,1012.7
2019-03-21T03:52:43.315Z,1012.7
2019-03-21T03:53:44.045Z,1012.7
2019-03-21T03:54:44.745Z,1012.7
2019-03-21T03:55:45.415Z,1012.7
2019-03-21T03:56:46.083Z,1012.7
2019-03-21T03:57:46.799Z,1012.7
2019-03-21T03:58:47.469Z,1012.8
2019-03-21T03:59:48.137Z,1012.8
2019-03-21T04:00:48.807Z,1012.8
2019-03-21T04:01:49.474Z,1012.8
2019-03-21T04:02:50.158Z,1012.7
2019-03-21T04:03:50.805Z,1012.8
2019-03-21T04:04:51.521Z,1012.7
2019-03-21T04:05:52.198Z,1012.7
2019-03-21T04:06:52.862Z,1012.7
2019-03-21T04:07:53.528Z,1012.8
2019-03-21T04:08:54.195Z,1012.8
2019-03-21T04:09:54.864Z,1012.8
2019-03-21T04:10:55.554Z,1012.8
2019-03-21T04:11:56.201Z,1012.8
2019-03-21T04:12:56.869Z,1012.8
2019-03-21T04:13:57.542Z,1012.8
2019-03-21T04:14:58.211Z,1012.8
2019-03-21T04:15:58.923Z,1012.8
2019-03-21T04:16:59.612Z,1012.8
2019-03-21T04:18:00.272Z,1012.8
2019-03-21T04:19:00.983Z,1012.7
2019-03-21T04:20:01.646Z,1012.8
2019-03-21T04:21:02.340Z,1012.8
2019-03-21T04:22:02.991Z,1012.8
2019-03-21T04:23:03.749Z,1012.8
2019-03-21T04:24:04.376Z,1012.8
2019-03-21T04:25:05.099Z,1012.8
2019-03-21T04:26:05.759Z,1012.8
2019-03-21T04:27:06.428Z,1012.9
2019-03-21T04:28:07.099Z,1012.8
2019-03-21T04:29:07.772Z,1012.8
2019-03-21T04:30:08.433Z,1012.9
2019-03-21T04:31:09.103Z,1012.9
2019-03-21T04:32:09.769Z,1012.8
2019-03-21T04:33:10.440Z,1012.8
2019-03-21T04:34:11.107Z,1012.8
2019-03-21T04:35:11.778Z,1012.8
2019-03-21T04:36:12.492Z,1012.8
2019-03-21T04:37:13.159Z,1012.8
2019-03-21T04:38:13.830Z,1012.8
2019-03-21T04:39:14.509Z,1012.8
2019-03-21T04:40:15.166Z,1012.8
2019-03-21T04:41:15.882Z,1012.8
2019-03-21T04:42:16.552Z,1012.8
2019-03-21T04:43:17.270Z,1012.8
2019-03-21T04:44:17.938Z,1012.8
2019-03-21T04:45:18.608Z,1012.8
2019-03-21T04:46:19.275Z,1012.8
2019-03-21T04:47:19.944Z,1012.8
2019-03-21T04:48:20.612Z,1012.8
2019-03-21T04:49:21.281Z,1012.8
2019-03-21T04:50:21.948Z,1012.8
2019-03-21T04:51:22.616Z,1012.8
2019-03-21T04:52:23.284Z,1012.8
2019-03-21T04:53:23.955Z,1012.8
2019-03-21T04:54:24.622Z,1012.8
2019-03-21T04:55:25.289Z,1012.7
2019-03-21T04:56:25.957Z,1012.8
2019-03-21T04:57:26.627Z,1012.8
2019-03-21T04:58:27.302Z,1012.7
2019-03-21T04:59:27.964Z,1012.8
2019-03-21T05:00:28.656Z,1012.8
2019-03-21T05:01:29.350Z,1012.8
2019-03-21T05:02:30.020Z,1012.7
2019-03-21T05:03:30.688Z,1012.8
2019-03-21T05:04:31.359Z,1012.8
2019-03-21T05:05:32.033Z,1012.8
2019-03-21T05:06:32.935Z,1012.8
2019-03-21T05:07:33.617Z,1012.8
2019-03-21T05:08:34.288Z,1012.8
2019-03-21T05:09:34.956Z,1012.8
2019-03-21T05:10:35.626Z,1012.8
2019-03-21T05:11:36.294Z,1012.9
2019-03-21T05:12:36.967Z,1012.9
2019-03-21T05:13:37.637Z,1012.8
2019-03-21T05:14:38.308Z,1012.9
2019-03-21T05:15:38.981Z,1012.9
2019-03-21T05:16:39.651Z,1012.9
2019-03-21T05:17:40.321Z,1012.9
2019-03-21T05:18:40.993Z,1012.9
2019-03-21T05:19:41.661Z,1013.0
2019-03-21T05:20:42.333Z,1013.0
2019-03-21T05:21:43.002Z,1013.0
2019-03-21T05:22:43.672Z,1013.0
2019-03-21T05:23:44.344Z,1013.0
2019-03-21T05:24:45.014Z,1013.0
2019-03-21T05:25:45.687Z,1013.0
2019-03-21T05:26:46.360Z,1013.0
2019-03-21T05:27:47.032Z,1013.0
2019-03-21T05:28:47.706Z,1013.0
2019-03-21T05:29:48.375Z,1013.1
2019-03-21T05:30:49.047Z,1013.1
2019-03-21T05:31:49.720Z,1013.1
2019-03-21T05:32:50.392Z,1013.2
2019-03-21T05:33:51.062Z,1013.1
2019-03-21T05:34:51.734Z,1013.1
2019-03-21T05:35:52.408Z,1013.2
2019-03-21T05:36:53.077Z,1013.2
2019-03-21T05:37:53.751Z,1013.2
2019-03-21T05:38:54.429Z,1013.2
2019-03-21T05:39:55.143Z,1013.2
2019-03-21T05:40:55.836Z,1013.3
2019-03-21T05:41:56.536Z,1013.2
2019-03-21T05:42:57.209Z,1013.2
2019-03-21T05:43:57.882Z,1013.2
2019-03-21T05:44:58.554Z,1013.2
2019-03-21T05:45:59.227Z,1013.2
2019-03-21T05:46:59.901Z,1013.2
2019-03-21T05:48:00.574Z,1013.3
2019-03-21T05:49:01.295Z,1013.3
2019-03-21T05:50:01.971Z,1013.3
2019-03-21T05:51:02.646Z,1013.3
2019-03-21T05:52:03.315Z,1013.3
2019-03-21T05:53:03.987Z,1013.3
2019-03-21T05:54:04.661Z,1013.3
2019-03-21T05:55:05.335Z,1013.3
2019-03-21T05:56:06.007Z,1013.3
2019-03-21T05:57:06.679Z,1013.3
2019-03-21T05:58:07.359Z,1013.3
2019-03-21T05:59:08.025Z,1013.3
2019-03-21T06:00:08.698Z,1013.3
2019-03-21T06:01:09.370Z,1013.3
2019-03-21T06:02:10.049Z,1013.4
2019-03-21T06:03:10.716Z,1013.4
2019-03-21T06:04:11.389Z,1013.4
2019-03-21T06:05:12.063Z,1013.4
2019-03-21T06:06:12.740Z,1013.4
2019-03-21T06:07:13.457Z,1013.4
2019-03-21T06:08:14.129Z,1013.4
2019-03-21T06:09:14.804Z,1013.4
2019-03-21T06:10:15.479Z,1013.4
2019-03-21T06:11:16.199Z,1013.5
2019-03-21T06:12:16.873Z,1013.5
2019-03-21T06:13:17.545Z,1013.5
2019-03-21T06:14:18.218Z,1013.5
2019-03-21T06:15:18.892Z,1013.4
2019-03-21T06:16:19.566Z,1013.5
2019-03-21T06:17:20.238Z,1013.5
2019-03-21T06:18:20.911Z,1013.5
2019-03-21T06:19:21.583Z,1013.5
2019-03-21T06:20:22.255Z,1013.5
2019-03-21T06:21:22.930Z,1013.5
2019-03-21T06:22:23.603Z,1013.5
2019-03-21T06:23:24.279Z,1013.5
2019-03-21T06:24:24.949Z,1013.6
2019-03-21T06:25:25.624Z,1013.6
2019-03-21T06:26:26.295Z,1013.6
2019-03-21T06:27:26.969Z,1013.6
2019-03-21T06:28:27.644Z,1013.6
2019-03-21T06:29:28.316Z,1013.6
2019-03-21T06:30:28.989Z,1013.6
2019-03-21T06:31:29.663Z,1013.7
2019-03-21T06:32:30.337Z,1013.7
2019-03-21T06:33:31.009Z,1013.7
2019-03-21T06:34:31.683Z,1013.7
2019-03-21T06:35:32.357Z,1013.7
2019-03-21T06:36:33.029Z,1013.8
2019-03-21T06:37:33.702Z,1013.8
2019-03-21T06:38:34.376Z,1013.7
2019-03-21T06:39:35.062Z,1013.8
2019-03-21T06:40:35.770Z,1013.7
2019-03-21T06:41:36.444Z,1013.7
2019-03-21T06:42:39.002Z,1013.7
2019-03-21T06:43:38.784Z,1013.7
2019-03-21T06:44:39.458Z,1013.7
2019-03-21T06:45:47.846Z,1013.8
2019-03-21T06:46:48.906Z,1013.8
2019-03-21T06:47:41.562Z,1013.8
2019-03-21T06:48:42.236Z,1013.8
2019-03-21T06:49:42.956Z,1013.8
2019-03-21T06:50:43.677Z,1013.8
2019-03-21T06:51:44.352Z,1013.8
2019-03-21T06:52:45.025Z,1013.8
2019-03-21T06:53:45.699Z,1013.8
2019-03-21T06:54:46.420Z,1013.7
2019-03-21T06:55:47.094Z,1013.8
2019-03-21T06:56:47.816Z,1013.7
2019-03-21T06:57:48.490Z,1013.7
2019-03-21T06:58:49.187Z,1013.7
2019-03-21T06:59:49.877Z,1013.7
2019-03-21T07:00:50.553Z,1013.7
2019-03-21T07:01:51.225Z,1013.8
2019-03-21T07:02:51.898Z,1013.7
2019-03-21T07:03:52.572Z,1013.8
2019-03-21T07:04:53.246Z,1013.8
2019-03-21T07:05:53.919Z,1013.8
2019-03-21T07:06:54.593Z,1013.8
2019-03-21T07:07:55.268Z,1013.8
2019-03-21T07:08:55.941Z,1013.8
2019-03-21T07:09:56.614Z,1013.7
2019-03-21T07:10:58.327Z,1013.8
2019-03-21T07:11:58.005Z,1013.7
2019-03-21T07:12:58.678Z,1013.7
2019-03-21T07:13:59.357Z,1013.8
2019-03-21T07:15:00.029Z,1013.8
2019-03-21T07:16:00.701Z,1013.8
2019-03-21T07:17:01.378Z,1013.8
2019-03-21T07:18:02.100Z,1013.8
2019-03-21T07:19:02.779Z,1013.8
2019-03-21T07:20:03.459Z,1013.8
2019-03-21T07:21:04.125Z,1013.7
2019-03-21T07:22:04.799Z,1013.7
2019-03-21T07:23:05.474Z,1013.8
2019-03-21T07:24:06.146Z,1013.7
2019-03-21T07:25:06.822Z,1013.7
2019-03-21T07:26:07.496Z,1013.8
2019-03-21T07:27:08.170Z,1013.7
2019-03-21T07:28:08.842Z,1013.7
2019-03-21T07:29:09.517Z,1013.8
2019-03-21T07:30:10.191Z,1013.8
2019-03-21T07:31:11.428Z,1013.8
2019-03-21T07:32:12.197Z,1013.7
2019-03-21T07:33:12.871Z,1013.8
2019-03-21T07:34:13.545Z,1013.8
2019-03-21T07:35:14.221Z,1013.8
2019-03-21T07:36:14.896Z,1013.9
2019-03-21T07:37:15.569Z,1013.8
2019-03-21T07:38:16.245Z,1013.8
2019-03-21T07:39:16.921Z,1013.8
2019-03-21T07:40:17.594Z,1013.8
2019-03-21T07:41:18.270Z,1013.8
2019-03-21T07:42:18.945Z,1013.8
2019-03-21T07:43:22.107Z,1013.8
2019-03-21T07:44:21.289Z,1013.8
2019-03-21T07:45:21.970Z,1013.8
2019-03-21T07:46:22.646Z,1013.8
2019-03-21T07:47:23.317Z,1013.8
2019-03-21T07:48:23.992Z,1013.8
2019-03-21T07:49:24.670Z,1013.8
2019-03-21T07:50:25.346Z,1013.8
2019-03-21T07:51:26.021Z,1013.8
2019-03-21T07:52:26.701Z,1013.9
2019-03-21T07:53:27.373Z,1013.8
2019-03-21T07:54:28.078Z,1013.9
2019-03-21T07:55:28.775Z,1013.9
2019-03-21T07:56:29.452Z,1013.9
2019-03-21T07:57:30.131Z,1013.9
2019-03-21T07:58:30.807Z,1013.9
2019-03-21T07:59:31.486Z,1013.9
2019-03-21T08:00:32.164Z,1013.9
2019-03-21T08:01:32.841Z,1014.0
2019-03-21T08:02:33.519Z,1014.0
2019-03-21T08:03:34.197Z,1014.0
2019-03-21T08:04:34.880Z,1014.0
2019-03-21T08:05:40.402Z,1014.0
2019-03-21T08:06:37.274Z,1014.0
2019-03-21T08:07:37.970Z,1014.0
2019-03-21T08:08:38.651Z,1014.0
2019-03-21T08:09:39.370Z,1014.1
2019-03-21T08:10:40.012Z,1014.1
2019-03-21T08:11:40.696Z,1014.1
2019-03-21T08:12:41.370Z,1014.0
2019-03-21T08:13:42.052Z,1014.1
2019-03-21T08:14:42.731Z,1014.0
2019-03-21T08:15:43.414Z,1014.0
2019-03-21T08:16:44.093Z,1014.0
2019-03-21T08:17:44.790Z,1014.0
2019-03-21T08:18:45.457Z,1014.1
2019-03-21T08:19:46.137Z,1014.0
2019-03-21T08:20:55.847Z,1014.1
2019-03-21T08:21:48.493Z,1014.0
2019-03-21T08:22:49.174Z,1014.0
2019-03-21T08:23:49.856Z,1014.0
2019-03-21T08:24:50.543Z,1014.0
2019-03-21T08:25:51.221Z,1014.0
2019-03-21T08:26:51.907Z,1014.1
2019-03-21T08:27:52.637Z,1014.1
2019-03-21T08:28:53.320Z,1014.1
2019-03-21T08:29:54.002Z,1014.0
2019-03-21T08:30:54.685Z,1014.0
2019-03-21T08:31:55.367Z,1014.1
2019-03-21T08:32:56.052Z,1014.0
2019-03-21T08:33:56.736Z,1014.0
2019-03-21T08:34:57.418Z,1014.0
2019-03-21T08:35:58.103Z,1014.1
2019-03-21T08:36:58.785Z,1014.1
2019-03-21T08:37:59.471Z,1014.1
2019-03-21T08:39:00.155Z,1014.1
2019-03-21T08:40:00.844Z,1014.1
2019-03-21T08:41:01.522Z,1014.1
2019-03-21T08:42:02.205Z,1014.1
2019-03-21T08:43:02.891Z,1014.1
2019-03-21T08:44:03.625Z,1014.1
2019-03-21T08:45:04.313Z,1014.1
2019-03-21T08:46:05.042Z,1014.1
2019-03-21T08:47:05.729Z,1014.1
2019-03-21T08:48:06.414Z,1014.1
2019-03-21T08:49:07.148Z,1014.1
2019-03-21T08:50:07.833Z,1014.1
2019-03-21T08:51:09.016Z,1014.0
2019-03-21T08:52:09.700Z,1014.0
2019-03-21T08:53:10.389Z,1014.0
2019-03-21T08:54:11.120Z,1014.0
2019-03-21T08:55:11.804Z,1014.0
2019-03-21T08:56:12.487Z,1014.0
2019-03-21T08:57:13.174Z,1013.9
2019-03-21T08:58:13.859Z,1013.9
2019-03-21T08:59:14.545Z,1013.9
2019-03-21T09:00:15.229Z,1013.9
2019-03-21T09:01:15.914Z,1013.9
2019-03-21T09:02:16.600Z,1013.9
2019-03-21T09:03:17.285Z,1013.9
2019-03-21T09:04:17.986Z,1013.9
2019-03-21T09:05:18.673Z,1013.9
2019-03-21T09:06:19.362Z,1013.9
2019-03-21T09:07:20.044Z,1013.9
2019-03-21T09:08:20.728Z,1013.9
2019-03-21T09:09:21.413Z,1013.9
2019-03-21T09:10:22.148Z,1013.9
2019-03-21T09:11:22.838Z,1013.9
2019-03-21T09:12:23.522Z,1013.9
2019-03-21T09:13:24.253Z,1013.9
2019-03-21T09:14:24.938Z,1013.9
2019-03-21T09:15:25.643Z,1013.9
2019-03-21T09:16:26.361Z,1013.9
2019-03-21T09:17:27.046Z,1013.9
2019-03-21T09:18:27.732Z,1013.9
2019-03-21T09:19:28.417Z,1013.9
2019-03-21T09:20:29.102Z,1013.9
2019-03-21T09:21:29.788Z,1013.9
2019-03-21T09:22:30.532Z,1013.9
2019-03-21T09:23:31.206Z,1013.9
2019-03-21T09:24:31.894Z,1013.9
2019-03-21T09:25:32.579Z,1013.9
2019-03-21T09:26:33.263Z,1013.9
2019-03-21T09:27:33.949Z,1013.9
2019-03-21T09:28:34.635Z,1013.9
2019-03-21T09:29:35.324Z,1013.9
2019-03-21T09:30:36.008Z,1013.9
2019-03-21T09:31:36.693Z,1013.8
2019-03-21T09:32:37.379Z,1013.9
2019-03-21T09:33:38.063Z,1013.8
2019-03-21T09:34:38.750Z,1013.9
2019-03-21T09:35:39.434Z,1013.9
2019-03-21T09:36:40.124Z,1013.9
2019-03-21T09:37:40.821Z,1013.9
2019-03-21T09:38:41.507Z,1013.9
2019-03-21T09:39:42.192Z,1013.9
2019-03-21T09:40:42.877Z,1013.9
2019-03-21T09:41:43.564Z,1013.9
2019-03-21T09:42:44.247Z,1013.9
2019-03-21T09:43:44.934Z,1013.9
2019-03-21T09:44:45.618Z,1013.9
2019-03-21T09:45:46.305Z,1013.9
2019-03-21T09:46:51.053Z,1013.9
2019-03-21T09:47:48.714Z,1013.9
2019-03-21T09:48:49.401Z,1013.9
2019-03-21T09:49:50.086Z,1013.9
2019-03-21T09:50:50.770Z,1013.9
2019-03-21T09:51:51.455Z,1013.9
2019-03-21T09:52:52.169Z,1013.8
2019-03-21T09:53:52.874Z,1013.8
2019-03-21T09:54:53.562Z,1013.8
2019-03-21T09:55:54.247Z,1013.8
2019-03-21T09:56:54.931Z,1013.8
2019-03-21T09:57:55.664Z,1013.8
2019-03-21T09:58:56.404Z,1013.8
2019-03-21T09:59:57.038Z,1013.8
2019-03-21T10:00:57.723Z,1013.8
2019-03-21T10:01:58.457Z,1013.7
2019-03-21T10:02:59.145Z,1013.7
2019-03-21T10:03:59.830Z,1013.7
2019-03-21T10:05:00.515Z,1013.7
2019-03-21T10:06:01.200Z,1013.7
2019-03-21T10:07:01.935Z,1013.6
2019-03-21T10:08:02.619Z,1013.6
2019-03-21T10:09:03.306Z,1013.6
2019-03-21T10:10:03.990Z,1013.6
2019-03-21T10:11:04.675Z,1013.6
2019-03-21T10:12:05.360Z,1013.6
2019-03-21T10:13:06.052Z,1013.6
2019-03-21T10:14:06.729Z,1013.6
2019-03-21T10:15:07.414Z,1013.6
2019-03-21T10:16:08.100Z,1013.6
2019-03-21T10:17:08.785Z,1013.6
2019-03-21T10:18:09.472Z,1013.6
2019-03-21T10:19:10.156Z,1013.6
2019-03-21T10:20:10.865Z,1013.6
2019-03-21T10:21:11.527Z,1013.6
2019-03-21T10:22:12.212Z,1013.6
2019-03-21T10:23:12.895Z,1013.6
2019-03-21T10:24:13.578Z,1013.6
2019-03-21T10:25:14.262Z,1013.6
2019-03-21T10:26:14.949Z,1013.6
2019-03-21T10:27:15.635Z,1013.6
2019-03-21T10:28:16.316Z,1013.6
2019-03-21T10:29:17.000Z,1013.5
2019-03-21T10:30:17.684Z,1013.5
2019-03-21T10:31:18.369Z,1013.5
2019-03-21T10:32:19.053Z,1013.5
2019-03-21T10:33:19.746Z,1013.5
2019-03-21T10:34:20.468Z,1013.5
2019-03-21T10:35:21.152Z,1013.5
2019-03-21T10:36:21.842Z,1013.5
2019-03-21T10:37:22.535Z,1013.5
2019-03-21T10:38:23.251Z,1013.5
2019-03-21T10:39:23.935Z,1013.5
2019-03-21T10:40:24.618Z,1013.5
2019-03-21T10:41:25.304Z,1013.5
2019-03-21T10:42:25.985Z,1013.5
2019-03-21T10:43:26.719Z,1013.5
2019-03-21T10:44:27.404Z,1013.5
2019-03-21T10:45:28.131Z,1013.5
2019-03-21T10:46:28.814Z,1013.4
2019-03-21T10:47:29.496Z,1013.4
2019-03-21T10:48:30.181Z,1013.4
2019-03-21T10:49:30.864Z,1013.4
2019-03-21T10:50:31.545Z,1013.4
2019-03-21T10:51:32.229Z,1013.4
2019-03-21T10:52:32.913Z,1013.4
2019-03-21T10:53:33.601Z,1013.4
2019-03-21T10:54:34.282Z,1013.4
2019-03-21T10:55:34.967Z,1013.4
2019-03-21T10:56:35.648Z,1013.4
2019-03-21T10:57:36.380Z,1013.4
2019-03-21T10:58:37.059Z,1013.4
2019-03-21T10:59:37.790Z,1013.4
2019-03-21T11:00:38.471Z,1013.4
2019-03-21T11:01:39.154Z,1013.3
2019-03-21T11:02:39.837Z,1013.3
2019-03-21T11:03:40.519Z,1013.3
2019-03-21T11:04:41.205Z,1013.4
2019-03-21T11:05:41.930Z,1013.4
2019-03-21T11:06:42.614Z,1013.4
2019-03-21T11:07:43.297Z,1013.4
2019-03-21T11:08:43.980Z,1013.3
2019-03-21T11:09:44.665Z,1013.3
2019-03-21T11:10:47.169Z,1013.3
2019-03-21T11:11:47.018Z,1013.3
2019-03-21T11:12:47.700Z,1013.2
2019-03-21T11:13:48.384Z,1013.3
2019-03-21T11:14:49.064Z,1013.3
2019-03-21T11:15:49.749Z,1013.2
2019-03-21T11:16:50.431Z,1013.2
2019-03-21T11:17:51.115Z,1013.2
2019-03-21T11:18:51.793Z,1013.2
2019-03-21T11:19:52.476Z,1013.2
2019-03-21T11:20:53.161Z,1013.2
2019-03-21T11:21:53.841Z,1013.2
2019-03-21T11:22:55.771Z,1013.1
2019-03-21T11:23:56.197Z,1013.1
2019-03-21T11:24:56.879Z,1013.1
2019-03-21T11:25:57.611Z,1013.2
2019-03-21T11:26:58.293Z,1013.1
2019-03-21T11:27:58.984Z,1013.2
2019-03-21T11:28:59.657Z,1013.1
2019-03-21T11:30:00.342Z,1013.1
2019-03-21T11:31:01.024Z,1013.1
2019-03-21T11:32:01.706Z,1013.1
2019-03-21T11:33:02.387Z,1013.1
2019-03-21T11:34:03.068Z,1013.1
2019-03-21T11:35:03.774Z,1013.1
2019-03-21T11:36:04.484Z,1013.0
2019-03-21T11:37:05.191Z,1013.0
2019-03-21T11:38:05.903Z,1013.0
2019-03-21T11:39:06.582Z,1013.0
2019-03-21T11:40:07.266Z,1013.0
2019-03-21T11:41:07.951Z,1013.0
2019-03-21T11:42:08.642Z,1013.0
2019-03-21T11:43:09.326Z,1013.0
2019-03-21T11:44:10.008Z,1013.0
2019-03-21T11:45:10.681Z,1012.9
2019-03-21T11:46:11.373Z,1012.9
2019-03-21T11:47:12.061Z,1012.8
2019-03-21T11:48:12.728Z,1012.8
2019-03-21T11:49:13.411Z,1012.9
2019-03-21T11:50:14.108Z,1012.9
2019-03-21T11:51:14.780Z,1012.8
2019-03-21T11:52:18.392Z,1012.8
2019-03-21T11:53:17.137Z,1012.7
2019-03-21T11:54:17.853Z,1012.8
2019-03-21T11:55:18.724Z,1012.8
2019-03-21T11:56:19.291Z,1012.8
2019-03-21T11:57:20.005Z,1012.7
2019-03-21T11:58:20.688Z,1012.7
2019-03-21T11:59:21.370Z,1012.7
2019-03-21T12:00:22.100Z,1012.7
2019-03-21T12:01:22.783Z,1012.7
2019-03-21T12:02:27.369Z,1012.7
2019-03-21T12:03:25.199Z,1012.7
2019-03-21T12:04:25.867Z,1012.6
2019-03-21T12:05:26.548Z,1012.7
2019-03-21T12:06:27.233Z,1012.7
2019-03-21T12:07:27.915Z,1012.6
2019-03-21T12:08:28.597Z,1012.6
2019-03-21T12:09:29.278Z,1012.6
2019-03-21T12:10:29.959Z,1012.6
2019-03-21T12:11:30.644Z,1012.6
2019-03-21T12:12:31.326Z,1012.6
2019-03-21T12:13:32.010Z,1012.5
2019-03-21T12:14:32.691Z,1012.6
2019-03-21T12:15:33.423Z,1012.5
2019-03-21T12:16:34.150Z,1012.5
2019-03-21T12:17:34.831Z,1012.5
2019-03-21T12:18:35.515Z,1012.5
2019-03-21T12:19:36.198Z,1012.5
2019-03-21T12:20:36.880Z,1012.5
2019-03-21T12:21:37.561Z,1012.4
2019-03-21T12:22:38.243Z,1012.4
2019-03-21T12:23:38.928Z,1012.4
2019-03-21T12:24:39.611Z,1012.4
2019-03-21T12:25:40.293Z,1012.3
2019-03-21T12:26:40.975Z,1012.4
2019-03-21T12:27:41.656Z,1012.4
2019-03-21T12:28:42.341Z,1012.4
2019-03-21T12:29:43.024Z,1012.3
2019-03-21T12:30:43.707Z,1012.3
2019-03-21T12:31:44.437Z,1012.3
2019-03-21T12:32:45.120Z,1012.3
2019-03-21T12:33:45.802Z,1012.2
2019-03-21T12:34:46.485Z,1012.2
2019-03-21T12:35:47.169Z,1012.2
2019-03-21T12:36:47.852Z,1012.2